createdAt,value
2022-10-03T00:00:25.147Z,26.76
2022-10-03T00:01:25.191Z,26.75
2022-10-03T00:02:25.197Z,26.75
2022-10-03T00:03:25.150Z,26.75
2022-10-03T00:04:25.147Z,26.65
2022-10-03T00:05:25.150Z,26.77
2022-10-03T00:06:25.171Z,26.73
2022-10-03T00:07:25.149Z,26.69
2022-10-03T00:08:25.151Z,26.72
2022-10-03T00:09:25.148Z,26.73
2022-10-03T00:10:25.147Z,26.77
2022-10-03T00:11:25.149Z,26.62
2022-10-03T00:12:25.150Z,26.73
2022-10-03T00:13:25.149Z,26.73
2022-10-03T00:14:25.147Z,26.67
2022-10-03T00:15:25.149Z,26.70
2022-10-03T00:16:25.200Z,26.67
2022-10-03T00:17:25.150Z,26.69
2022-10-03T00:18:25.148Z,26.72
2022-10-03T00:19:25.149Z,26.72
2022-10-03T00:20:25.149Z,26.72
2022-10-03T00:21:25.151Z,26.67
2022-10-03T00:22:25.169Z,26.67
2022-10-03T00:23:25.148Z,26.75
2022-10-03T00:24:25.148Z,26.67
2022-10-03T00:25:25.149Z,26.76
2022-10-03T00:26:25.147Z,26.73
2022-10-03T00:27:25.148Z,26.70
2022-10-03T00:28:25.207Z,26.72
2022-10-03T00:29:25.151Z,26.66
2022-10-03T00:30:25.156Z,26.72
2022-10-03T00:31:25.231Z,26.75
2022-10-03T00:32:25.147Z,26.73
2022-10-03T00:33:25.150Z,26.75
2022-10-03T00:34:25.147Z,26.63
2022-10-03T00:35:25.149Z,26.65
2022-10-03T00:36:25.148Z,26.69
2022-10-03T00:37:25.148Z,26.75
2022-10-03T00:38:25.174Z,26.70
2022-10-03T00:39:25.148Z,26.72
2022-10-03T00:40:25.148Z,26.69
2022-10-03T00:41:25.148Z,26.72
2022-10-03T00:42:25.149Z,26.73
2022-10-03T00:43:25.149Z,26.70
2022-10-03T00:44:25.148Z,26.66
2022-10-03T00:45:25.149Z,26.67
2022-10-03T00:46:25.161Z,26.72
2022-10-03T00:47:25.151Z,26.70
2022-10-03T00:48:25.147Z,26.69
2022-10-03T00:49:25.149Z,26.69
2022-10-03T00:50:25.147Z,26.73
2022-10-03T00:51:25.149Z,26.77
2022-10-03T00:52:25.148Z,26.67
2022-10-03T00:53:25.148Z,26.72
2022-10-03T00:54:25.170Z,26.73
2022-10-03T00:55:25.151Z,26.72
2022-10-03T00:56:25.146Z,26.67
2022-10-03T00:57:25.148Z,26.66
2022-10-03T00:58:25.149Z,26.65
2022-10-03T00:59:25.148Z,26.75
2022-10-03T01:00:25.149Z,26.62
2022-10-03T01:01:25.244Z,26.66
2022-10-03T01:02:25.189Z,26.66
2022-10-03T01:03:25.148Z,26.73
2022-10-03T01:04:25.147Z,26.75
2022-10-03T01:05:25.149Z,26.69
2022-10-03T01:06:25.147Z,26.67
2022-10-03T01:07:25.147Z,26.72
2022-10-03T01:08:25.147Z,26.70
2022-10-03T01:09:25.147Z,26.72
2022-10-03T01:10:25.169Z,26.72
2022-10-03T01:11:25.150Z,26.62
2022-10-03T01:12:25.147Z,26.67
2022-10-03T01:13:25.148Z,26.72
2022-10-03T01:14:25.146Z,26.67
2022-10-03T01:15:25.148Z,26.72
2022-10-03T01:16:25.235Z,26.65
2022-10-03T01:17:25.151Z,26.66
2022-10-03T01:18:25.146Z,26.75
2022-10-03T01:19:25.148Z,26.69
2022-10-03T01:20:25.149Z,26.72
2022-10-03T01:21:25.148Z,26.69
2022-10-03T01:22:25.147Z,26.73
2022-10-03T01:23:25.147Z,26.66
2022-10-03T01:24:25.147Z,26.67
2022-10-03T01:25:25.147Z,26.69
2022-10-03T01:26:25.169Z,26.67
2022-10-03T01:27:25.149Z,26.63
2022-10-03T01:28:25.214Z,26.75
2022-10-03T01:29:25.150Z,26.67
2022-10-03T01:30:25.146Z,26.66
2022-10-03T01:31:25.193Z,26.69
2022-10-03T01:32:25.152Z,26.72
2022-10-03T01:33:25.148Z,26.72
2022-10-03T01:34:25.147Z,26.66
2022-10-03T01:35:25.146Z,26.60
2022-10-03T01:36:25.147Z,26.65
2022-10-03T01:37:25.149Z,26.67
2022-10-03T01:38:25.146Z,26.67
2022-10-03T01:39:25.147Z,26.65
2022-10-03T01:40:25.146Z,26.65
2022-10-03T01:41:25.148Z,26.70
2022-10-03T01:42:25.168Z,26.65
2022-10-03T01:43:25.147Z,26.69
2022-10-03T01:44:25.145Z,26.66
2022-10-03T01:45:25.147Z,26.62
2022-10-03T01:46:25.193Z,26.69
2022-10-03T01:47:25.149Z,26.66
2022-10-03T01:48:25.147Z,26.72
2022-10-03T01:49:25.148Z,26.62
2022-10-03T01:50:25.149Z,26.72
2022-10-03T01:51:25.146Z,26.70
2022-10-03T01:52:25.146Z,26.58
2022-10-03T01:53:25.151Z,26.63
2022-10-03T01:54:25.145Z,26.72
2022-10-03T01:55:25.155Z,26.72
2022-10-03T01:56:25.146Z,26.67
2022-10-03T01:57:25.148Z,26.75
2022-10-03T01:58:25.169Z,26.69
2022-10-03T01:59:25.147Z,26.67
2022-10-03T02:00:25.147Z,26.62
2022-10-03T02:01:25.208Z,26.72
2022-10-03T02:02:25.226Z,26.73
2022-10-03T02:03:25.147Z,26.70
2022-10-03T02:04:25.145Z,26.67
2022-10-03T02:05:25.147Z,26.72
2022-10-03T02:06:25.147Z,26.66
2022-10-03T02:07:25.146Z,26.67
2022-10-03T02:08:25.146Z,26.69
2022-10-03T02:09:25.147Z,26.75
2022-10-03T02:10:25.144Z,26.70
2022-10-03T02:11:25.146Z,26.70
2022-10-03T02:12:25.151Z,26.73
2022-10-03T02:13:25.147Z,26.70
2022-10-03T02:14:25.171Z,26.63
2022-10-03T02:15:25.147Z,26.72
2022-10-03T02:16:25.228Z,26.66
2022-10-03T02:17:25.148Z,26.65
2022-10-03T02:18:25.144Z,26.72
2022-10-03T02:19:25.147Z,26.69
2022-10-03T02:20:25.147Z,26.63
2022-10-03T02:21:25.146Z,26.62
2022-10-03T02:22:25.145Z,26.67
2022-10-03T02:23:25.145Z,26.69
2022-10-03T02:24:25.145Z,26.60
2022-10-03T02:25:25.146Z,26.69
2022-10-03T02:26:25.145Z,26.66
2022-10-03T02:27:25.146Z,26.73
2022-10-03T02:28:25.195Z,26.65
2022-10-03T02:29:25.146Z,26.67
2022-10-03T02:30:25.167Z,26.63
2022-10-03T02:31:25.234Z,26.69
2022-10-03T02:32:25.145Z,26.66
2022-10-03T02:33:25.149Z,26.66
2022-10-03T02:34:25.148Z,26.69
2022-10-03T02:35:25.152Z,26.70
2022-10-03T02:36:25.146Z,26.62
2022-10-03T02:37:25.146Z,26.65
2022-10-03T02:38:25.145Z,26.73
2022-10-03T02:39:25.145Z,26.70
2022-10-03T02:40:25.145Z,26.63
2022-10-03T02:41:25.146Z,26.69
2022-10-03T02:42:25.171Z,26.62
2022-10-03T02:43:25.146Z,26.72
2022-10-03T02:44:25.146Z,26.67
2022-10-03T02:45:25.196Z,26.63
2022-10-03T02:46:25.166Z,26.63
2022-10-03T02:47:25.145Z,26.75
2022-10-03T02:48:31.714Z,26.73
2022-10-03T02:49:25.145Z,26.69
2022-10-03T02:50:25.146Z,26.65
2022-10-03T02:51:25.145Z,26.63
2022-10-03T02:52:25.144Z,26.65
2022-10-03T02:53:25.146Z,26.69
2022-10-03T02:54:25.147Z,26.72
2022-10-03T02:55:25.146Z,26.60
2022-10-03T02:56:25.147Z,26.66
2022-10-03T02:57:25.147Z,26.65
2022-10-03T02:58:25.146Z,26.66
2022-10-03T02:59:25.145Z,26.67
2022-10-03T03:00:25.145Z,26.73
2022-10-03T03:01:25.225Z,26.67
2022-10-03T03:02:25.233Z,26.65
2022-10-03T03:03:25.144Z,26.65
2022-10-03T03:04:25.295Z,26.65
2022-10-03T03:05:25.147Z,26.66
2022-10-03T03:06:25.144Z,26.58
2022-10-03T03:07:25.144Z,26.60
2022-10-03T03:08:25.143Z,26.70
2022-10-03T03:09:25.144Z,26.65
2022-10-03T03:10:25.143Z,26.72
2022-10-03T03:11:25.144Z,26.69
2022-10-03T03:12:25.144Z,26.69
2022-10-03T03:13:25.144Z,26.65
2022-10-03T03:14:25.145Z,26.60
2022-10-03T03:15:25.145Z,26.63
2022-10-03T03:16:25.210Z,26.65
2022-10-03T03:17:25.154Z,26.69
2022-10-03T03:18:25.167Z,26.63
2022-10-03T03:19:25.144Z,26.63
2022-10-03T03:20:25.147Z,26.70
2022-10-03T03:21:25.147Z,26.63
2022-10-03T03:22:25.145Z,26.67
2022-10-03T03:23:25.145Z,26.67
2022-10-03T03:24:25.143Z,26.62
2022-10-03T03:25:25.147Z,26.63
2022-10-03T03:26:25.149Z,26.65
2022-10-03T03:27:25.145Z,26.70
2022-10-03T03:28:25.222Z,26.66
2022-10-03T03:29:25.150Z,26.67
2022-10-03T03:30:25.143Z,26.70
2022-10-03T03:31:25.180Z,26.60
2022-10-03T03:32:25.143Z,26.69
2022-10-03T03:33:25.144Z,26.65
2022-10-03T03:34:25.164Z,26.66
2022-10-03T03:35:25.143Z,26.66
2022-10-03T03:36:25.143Z,26.65
2022-10-03T03:37:25.144Z,26.65
2022-10-03T03:38:25.143Z,26.66
2022-10-03T03:39:25.143Z,26.69
2022-10-03T03:40:25.143Z,26.76
2022-10-03T03:41:25.149Z,26.72
2022-10-03T03:42:25.141Z,26.63
2022-10-03T03:43:25.144Z,26.69
2022-10-03T03:44:25.143Z,26.72
2022-10-03T03:45:25.230Z,26.72
2022-10-03T03:46:25.143Z,26.70
2022-10-03T03:47:25.144Z,26.63
2022-10-03T03:48:25.143Z,26.62
2022-10-03T03:49:25.146Z,26.75
2022-10-03T03:50:25.162Z,26.65
2022-10-03T03:51:25.146Z,26.75
2022-10-03T03:52:25.143Z,26.62
2022-10-03T03:53:25.143Z,26.66
2022-10-03T03:54:25.143Z,26.67
2022-10-03T03:55:25.143Z,26.66
2022-10-03T03:56:25.144Z,26.67
2022-10-03T03:57:25.145Z,26.67
2022-10-03T03:58:25.141Z,26.66
2022-10-03T03:59:25.143Z,26.70
2022-10-03T04:00:25.143Z,26.57
2022-10-03T04:01:25.216Z,26.58
2022-10-03T04:02:25.194Z,26.70
2022-10-03T04:03:25.146Z,26.67
2022-10-03T04:04:25.144Z,26.65
2022-10-03T04:05:25.143Z,26.65
2022-10-03T04:06:25.166Z,26.72
2022-10-03T04:07:25.142Z,26.65
2022-10-03T04:08:25.144Z,26.66
2022-10-03T04:09:25.143Z,26.65
2022-10-03T04:10:25.144Z,26.65
2022-10-03T04:11:25.141Z,26.66
2022-10-03T04:12:25.143Z,26.66
2022-10-03T04:13:25.145Z,26.63
2022-10-03T04:14:25.142Z,26.70
2022-10-03T04:15:25.142Z,26.66
2022-10-03T04:16:25.199Z,26.63
2022-10-03T04:17:25.141Z,26.69
2022-10-03T04:18:25.148Z,26.66
2022-10-03T04:19:25.151Z,26.62
2022-10-03T04:20:25.145Z,26.70
2022-10-03T04:21:25.143Z,26.66
2022-10-03T04:22:25.165Z,26.70
2022-10-03T04:23:25.140Z,26.62
2022-10-03T04:24:25.143Z,26.67
2022-10-03T04:25:25.143Z,26.65
2022-10-03T04:26:25.142Z,26.69
2022-10-03T04:27:25.141Z,26.62
2022-10-03T04:28:25.271Z,26.69
2022-10-03T04:29:25.141Z,26.67
2022-10-03T04:30:25.144Z,26.67
2022-10-03T04:31:25.181Z,26.73
2022-10-03T04:32:25.143Z,26.66
2022-10-03T04:33:25.141Z,26.65
2022-10-03T04:34:25.141Z,26.63
2022-10-03T04:35:25.145Z,26.65
2022-10-03T04:36:25.155Z,26.73
2022-10-03T04:37:25.142Z,26.62
2022-10-03T04:38:25.166Z,26.65
2022-10-03T04:39:25.140Z,26.63
2022-10-03T04:40:25.143Z,26.62
2022-10-03T04:41:25.142Z,26.62
2022-10-03T04:42:25.142Z,26.66
2022-10-03T04:43:25.141Z,26.66
2022-10-03T04:44:25.142Z,26.69
2022-10-03T04:45:25.142Z,26.69
2022-10-03T04:46:25.144Z,26.62
2022-10-03T04:47:25.141Z,26.70
2022-10-03T04:48:25.141Z,26.63
2022-10-03T04:49:25.142Z,26.60
2022-10-03T04:50:25.140Z,26.65
2022-10-03T04:51:25.140Z,26.69
2022-10-03T04:52:25.142Z,26.63
2022-10-03T04:53:25.140Z,26.62
2022-10-03T04:54:25.162Z,26.65
2022-10-03T04:55:25.141Z,26.66
2022-10-03T04:56:25.143Z,26.63
2022-10-03T04:57:25.141Z,26.65
2022-10-03T04:58:25.142Z,26.60
2022-10-03T04:59:25.140Z,26.57
2022-10-03T05:00:25.151Z,26.66
2022-10-03T05:01:25.203Z,26.75
2022-10-03T05:02:25.208Z,26.72
2022-10-03T05:03:25.192Z,26.65
2022-10-03T05:04:25.341Z,26.62
2022-10-03T05:05:25.140Z,26.65
2022-10-03T05:06:25.141Z,26.65
2022-10-03T05:07:25.141Z,26.63
2022-10-03T05:08:25.141Z,26.63
2022-10-03T05:09:25.141Z,26.63
2022-10-03T05:10:25.161Z,26.62
2022-10-03T05:11:25.139Z,26.66
2022-10-03T05:12:25.141Z,26.66
2022-10-03T05:13:25.140Z,26.63
2022-10-03T05:14:25.141Z,26.66
2022-10-03T05:15:25.141Z,26.75
2022-10-03T05:16:25.203Z,26.70
2022-10-03T05:17:25.141Z,26.63
2022-10-03T05:18:27.124Z,26.69
2022-10-03T05:19:25.139Z,26.65
2022-10-03T05:20:25.140Z,26.69
2022-10-03T05:21:25.142Z,26.65
2022-10-03T05:22:25.152Z,26.72
2022-10-03T05:23:25.140Z,26.67
2022-10-03T05:24:25.140Z,26.70
2022-10-03T05:25:25.143Z,26.75
2022-10-03T05:26:45.080Z,26.72
2022-10-03T05:27:25.146Z,26.66
2022-10-03T05:28:25.247Z,26.67
2022-10-03T05:29:25.143Z,26.67
2022-10-03T05:30:25.139Z,26.66
2022-10-03T05:31:25.186Z,26.65
2022-10-03T05:32:25.141Z,26.69
2022-10-03T05:33:25.140Z,26.69
2022-10-03T05:34:25.142Z,26.65
2022-10-03T05:35:25.140Z,26.62
2022-10-03T05:36:25.140Z,26.65
2022-10-03T05:37:25.140Z,26.69
2022-10-03T05:38:25.142Z,26.66
2022-10-03T05:39:25.139Z,26.67
2022-10-03T05:40:25.143Z,26.67
2022-10-03T05:41:26.221Z,26.65
2022-10-03T05:42:25.160Z,26.67
2022-10-03T05:43:25.139Z,26.69
2022-10-03T05:44:25.148Z,26.60
2022-10-03T05:45:25.140Z,26.63
2022-10-03T05:46:25.238Z,26.66
2022-10-03T05:47:25.138Z,26.63
2022-10-03T05:48:25.141Z,26.60
2022-10-03T05:49:25.139Z,26.65
2022-10-03T05:50:25.141Z,26.76
2022-10-03T05:51:25.137Z,26.76
2022-10-03T05:52:25.145Z,26.69
2022-10-03T05:53:25.139Z,26.75
2022-10-03T05:54:25.139Z,26.77
2022-10-03T05:55:25.138Z,26.75
2022-10-03T05:56:25.140Z,26.72
2022-10-03T05:57:25.149Z,26.73
2022-10-03T05:58:25.161Z,26.70
2022-10-03T05:59:25.139Z,26.72
2022-10-03T06:00:25.141Z,26.73
2022-10-03T06:01:25.139Z,26.73
2022-10-03T06:02:25.278Z,26.80
2022-10-03T06:03:25.183Z,26.81
2022-10-03T06:04:25.140Z,26.76
2022-10-03T06:05:25.139Z,26.73
2022-10-03T06:06:25.138Z,26.76
2022-10-03T06:07:25.140Z,26.80
2022-10-03T06:08:25.139Z,26.77
2022-10-03T06:09:25.141Z,26.82
2022-10-03T06:10:25.139Z,26.76
2022-10-03T06:11:25.139Z,26.87
2022-10-03T06:12:25.139Z,26.81
2022-10-03T06:13:25.139Z,26.80
2022-10-03T06:14:25.160Z,26.89
2022-10-03T06:15:25.140Z,26.91
2022-10-03T06:16:25.224Z,26.92
2022-10-03T06:17:25.140Z,26.91
2022-10-03T06:18:25.139Z,26.95
2022-10-03T06:19:25.138Z,26.97
2022-10-03T06:20:25.140Z,26.91
2022-10-03T06:21:25.140Z,27.00
2022-10-03T06:22:25.140Z,26.88
2022-10-03T06:23:25.139Z,26.92
2022-10-03T06:24:25.141Z,27.06
2022-10-03T06:25:25.141Z,26.97
2022-10-03T06:26:25.139Z,26.97
2022-10-03T06:27:25.141Z,27.03
2022-10-03T06:28:25.315Z,27.02
2022-10-03T06:29:25.140Z,27.12
2022-10-03T06:30:25.166Z,27.10
2022-10-03T06:31:28.271Z,27.10
2022-10-03T06:32:25.143Z,27.10
2022-10-03T06:33:25.141Z,27.13
2022-10-03T06:34:25.141Z,27.14
2022-10-03T06:35:25.144Z,27.13
2022-10-03T06:36:25.143Z,27.10
2022-10-03T06:37:25.142Z,27.14
2022-10-03T06:38:25.143Z,27.12
2022-10-03T06:39:25.141Z,27.14
2022-10-03T06:40:25.168Z,27.10
2022-10-03T06:41:25.145Z,27.24
2022-10-03T06:42:25.149Z,27.22
2022-10-03T06:43:25.144Z,27.24
2022-10-03T06:44:25.144Z,27.19
2022-10-03T06:45:28.767Z,27.17
2022-10-03T06:46:25.251Z,27.21
2022-10-03T06:47:25.150Z,27.24
2022-10-03T06:48:25.146Z,27.21
2022-10-03T06:49:25.145Z,27.29
2022-10-03T06:50:25.146Z,27.28
2022-10-03T06:51:30.305Z,27.25
2022-10-03T06:52:25.147Z,27.31
2022-10-03T06:53:25.147Z,27.28
2022-10-03T06:54:25.146Z,27.18
2022-10-03T06:55:25.148Z,27.27
2022-10-03T06:56:25.147Z,27.24
2022-10-03T06:57:25.148Z,27.24
2022-10-03T06:58:25.149Z,27.29
2022-10-03T06:59:25.147Z,27.19
2022-10-03T07:00:25.195Z,27.28
2022-10-03T07:01:25.242Z,27.24
2022-10-03T07:02:25.227Z,27.32
2022-10-03T07:03:25.150Z,27.28
2022-10-03T07:04:25.150Z,27.36
2022-10-03T07:05:25.152Z,27.29
2022-10-03T07:06:25.151Z,27.32
2022-10-03T07:07:25.150Z,27.32
2022-10-03T07:08:25.153Z,27.32
2022-10-03T07:09:25.158Z,27.27
2022-10-03T07:10:25.151Z,27.25
2022-10-03T07:11:25.151Z,27.36
2022-10-03T07:12:25.154Z,27.24
2022-10-03T07:13:25.155Z,27.19
2022-10-03T07:14:25.154Z,27.31
2022-10-03T07:15:43.577Z,27.27
2022-10-03T07:16:27.426Z,27.22
2022-10-03T07:17:25.176Z,27.25
2022-10-03T07:18:25.182Z,27.24
2022-10-03T07:19:25.155Z,27.29
2022-10-03T07:20:25.157Z,27.18
2022-10-03T07:21:25.155Z,27.28
2022-10-03T07:22:25.158Z,27.19
2022-10-03T07:23:25.156Z,27.18
2022-10-03T07:24:25.159Z,27.28
2022-10-03T07:25:25.158Z,27.24
2022-10-03T07:26:25.157Z,27.27
2022-10-03T07:27:25.156Z,27.36
2022-10-03T07:28:25.221Z,27.32
2022-10-03T07:29:25.158Z,27.29
2022-10-03T07:30:25.165Z,27.29
2022-10-03T07:31:25.223Z,27.25
2022-10-03T07:32:25.158Z,27.22
2022-10-03T07:33:25.158Z,27.34
2022-10-03T07:34:25.180Z,27.29
2022-10-03T07:35:25.159Z,27.36
2022-10-03T07:36:25.162Z,27.36
2022-10-03T07:37:25.162Z,27.34
2022-10-03T07:38:25.162Z,27.34
2022-10-03T07:39:25.160Z,27.36
2022-10-03T07:40:25.163Z,27.36
2022-10-03T07:41:25.161Z,27.29
2022-10-03T07:42:25.161Z,27.28
2022-10-03T07:43:25.160Z,27.37
2022-10-03T07:44:25.165Z,27.32
2022-10-03T07:45:25.163Z,27.36
2022-10-03T07:46:25.217Z,27.29
2022-10-03T07:47:25.163Z,27.32
2022-10-03T07:48:25.164Z,27.40
2022-10-03T07:49:25.165Z,27.32
2022-10-03T07:50:25.187Z,27.40
2022-10-03T07:51:25.165Z,27.43
2022-10-03T07:52:25.168Z,27.40
2022-10-03T07:53:25.166Z,27.29
2022-10-03T07:54:25.166Z,27.41
2022-10-03T07:55:25.165Z,27.41
2022-10-03T07:56:25.168Z,27.44
2022-10-03T07:57:25.166Z,27.49
2022-10-03T07:58:25.170Z,27.46
2022-10-03T07:59:25.166Z,27.43
2022-10-03T08:00:25.172Z,27.44
2022-10-03T08:01:25.176Z,27.47
2022-10-03T08:02:25.226Z,27.47
2022-10-03T08:03:25.231Z,27.47
2022-10-03T08:04:25.170Z,27.36
2022-10-03T08:05:25.174Z,27.50
2022-10-03T08:06:25.194Z,27.50
2022-10-03T08:07:25.170Z,27.46
2022-10-03T08:08:25.172Z,27.41
2022-10-03T08:09:25.171Z,27.41
2022-10-03T08:10:25.172Z,27.46
2022-10-03T08:11:25.171Z,27.41
2022-10-03T08:12:25.174Z,27.51
2022-10-03T08:13:25.173Z,27.50
2022-10-03T08:14:25.173Z,27.50
2022-10-03T08:15:25.173Z,27.55
2022-10-03T08:16:25.311Z,27.59
2022-10-03T08:17:25.174Z,27.62
2022-10-03T08:18:25.175Z,27.54
2022-10-03T08:19:25.176Z,27.62
2022-10-03T08:20:25.177Z,27.51
2022-10-03T08:21:25.178Z,27.55
2022-10-03T08:22:25.197Z,27.55
2022-10-03T08:23:25.188Z,27.54
2022-10-03T08:24:25.178Z,27.51
2022-10-03T08:25:25.179Z,27.59
2022-10-03T08:26:25.178Z,27.59
2022-10-03T08:27:25.181Z,27.54
2022-10-03T08:28:25.241Z,27.57
2022-10-03T08:29:25.185Z,27.57
2022-10-03T08:30:25.181Z,27.60
2022-10-03T08:31:25.283Z,27.54
2022-10-03T08:32:25.183Z,27.59
2022-10-03T08:33:25.185Z,27.60
2022-10-03T08:34:25.182Z,27.57
2022-10-03T08:35:25.184Z,27.62
2022-10-03T08:36:25.186Z,27.54
2022-10-03T08:37:25.186Z,27.59
2022-10-03T08:38:28.112Z,27.60
2022-10-03T08:39:25.186Z,27.62
2022-10-03T08:40:25.186Z,27.60
2022-10-03T08:41:25.187Z,27.55
2022-10-03T08:42:25.187Z,27.59
2022-10-03T08:43:25.407Z,27.59
2022-10-03T08:44:30.194Z,27.57
2022-10-03T08:45:25.189Z,27.57
2022-10-03T08:46:25.221Z,27.55
2022-10-03T08:47:25.198Z,27.51
2022-10-03T08:48:25.193Z,27.59
2022-10-03T08:49:25.192Z,27.51
2022-10-03T08:50:25.191Z,27.51
2022-10-03T08:51:25.192Z,27.50
2022-10-03T08:52:25.194Z,27.46
2022-10-03T08:53:25.194Z,27.54
2022-10-03T08:54:25.214Z,27.50
2022-10-03T08:55:25.194Z,27.49
2022-10-03T08:56:25.193Z,27.51
2022-10-03T08:57:25.197Z,27.49
2022-10-03T08:58:25.194Z,27.44
2022-10-03T08:59:25.196Z,27.49
2022-10-03T09:00:25.195Z,27.51
2022-10-03T09:01:25.224Z,27.47
2022-10-03T09:02:25.405Z,27.41
2022-10-03T09:03:35.219Z,27.44
2022-10-03T09:04:25.197Z,27.40
2022-10-03T09:05:25.199Z,27.40
2022-10-03T09:06:25.197Z,27.39
2022-10-03T09:07:25.809Z,27.46
2022-10-03T09:08:25.199Z,27.46
2022-10-03T09:09:25.200Z,27.41
2022-10-03T09:10:25.221Z,27.51
2022-10-03T09:11:25.202Z,27.49
2022-10-03T09:12:25.201Z,27.49
2022-10-03T09:13:25.203Z,27.29
2022-10-03T09:14:25.199Z,27.40
2022-10-03T09:15:25.201Z,27.37
2022-10-03T09:16:25.275Z,27.39
2022-10-03T09:17:25.204Z,27.29
2022-10-03T09:18:25.202Z,27.37
2022-10-03T09:19:25.203Z,27.32
2022-10-03T09:20:25.204Z,27.34
2022-10-03T09:21:25.207Z,27.31
2022-10-03T09:22:25.204Z,27.39
2022-10-03T09:23:25.205Z,27.34
2022-10-03T09:24:25.205Z,27.29
2022-10-03T09:25:25.205Z,27.29
2022-10-03T09:26:25.228Z,27.28
2022-10-03T09:27:25.211Z,27.29
2022-10-03T09:28:25.738Z,27.24
2022-10-03T09:29:25.208Z,27.24
2022-10-03T09:30:25.216Z,27.27
2022-10-03T09:31:25.302Z,27.25
2022-10-03T09:32:25.207Z,27.24
2022-10-03T09:33:25.208Z,27.24
2022-10-03T09:34:25.207Z,27.21
2022-10-03T09:35:25.208Z,27.27
2022-10-03T09:36:25.213Z,27.22
2022-10-03T09:37:25.212Z,27.27
2022-10-03T09:38:25.209Z,27.19
2022-10-03T09:39:25.214Z,27.27
2022-10-03T09:40:25.214Z,27.24
2022-10-03T09:41:25.212Z,27.27
2022-10-03T09:42:25.231Z,27.19
2022-10-03T09:43:25.211Z,27.25
2022-10-03T09:44:25.209Z,27.21
2022-10-03T09:45:25.213Z,27.19
2022-10-03T09:46:25.253Z,27.21
2022-10-03T09:47:25.213Z,27.14
2022-10-03T09:48:25.211Z,27.24
2022-10-03T09:49:25.213Z,27.17
2022-10-03T09:50:25.210Z,27.17
2022-10-03T09:51:25.212Z,27.12
2022-10-03T09:52:25.212Z,27.14
2022-10-03T09:53:25.214Z,27.17
2022-10-03T09:54:25.213Z,27.12
2022-10-03T09:55:25.213Z,27.18
2022-10-03T09:56:25.213Z,27.14
2022-10-03T09:57:25.214Z,27.18
2022-10-03T09:58:25.243Z,27.09
2022-10-03T09:59:25.215Z,27.06
2022-10-03T10:00:25.218Z,27.06
2022-10-03T10:01:25.381Z,27.09
2022-10-03T10:02:25.213Z,27.17
2022-10-03T10:03:25.216Z,27.14
2022-10-03T10:04:50.193Z,27.17
2022-10-03T10:05:25.216Z,27.17
2022-10-03T10:06:25.241Z,27.14
2022-10-03T10:07:25.215Z,27.09
2022-10-03T10:08:25.215Z,27.13
2022-10-03T10:09:25.218Z,27.14
2022-10-03T10:10:25.215Z,27.07
2022-10-03T10:11:25.217Z,27.07
2022-10-03T10:12:25.216Z,27.06
2022-10-03T10:13:25.219Z,27.09
2022-10-03T10:14:25.242Z,27.06
2022-10-03T10:15:25.218Z,27.12
2022-10-03T10:16:25.245Z,27.06
2022-10-03T10:17:25.218Z,27.10
2022-10-03T10:18:25.217Z,27.00
2022-10-03T10:19:25.218Z,27.13
2022-10-03T10:20:25.218Z,27.14
2022-10-03T10:21:25.224Z,27.06
2022-10-03T10:22:25.217Z,27.09
2022-10-03T10:23:25.221Z,27.12
2022-10-03T10:24:25.221Z,27.17
2022-10-03T10:25:25.220Z,27.19
2022-10-03T10:26:29.254Z,27.12
2022-10-03T10:27:25.218Z,27.14
2022-10-03T10:28:25.252Z,27.12
2022-10-03T10:29:25.220Z,27.10
2022-10-03T10:30:25.238Z,27.10
2022-10-03T10:31:25.302Z,27.17
2022-10-03T10:32:25.218Z,27.06
2022-10-03T10:33:25.220Z,27.18
2022-10-03T10:34:25.220Z,27.17
2022-10-03T10:35:25.221Z,27.12
2022-10-03T10:36:25.220Z,27.14
2022-10-03T10:37:25.220Z,27.10
2022-10-03T10:38:25.219Z,27.09
2022-10-03T10:39:25.221Z,27.03
2022-10-03T10:40:25.220Z,27.17
2022-10-03T10:41:25.222Z,27.12
2022-10-03T10:42:25.219Z,27.13
2022-10-03T10:43:25.221Z,27.18
2022-10-03T10:44:25.220Z,27.07
2022-10-03T10:45:25.223Z,27.14
2022-10-03T10:46:25.311Z,27.10
2022-10-03T10:47:25.224Z,27.19
2022-10-03T10:48:25.221Z,27.14
2022-10-03T10:49:25.224Z,27.13
2022-10-03T10:50:25.222Z,27.17
2022-10-03T10:51:25.224Z,27.07
2022-10-03T10:52:25.223Z,27.09
2022-10-03T10:53:25.224Z,27.09
2022-10-03T10:54:25.222Z,27.13
2022-10-03T10:55:25.227Z,27.17
2022-10-03T10:56:25.224Z,27.09
2022-10-03T10:57:25.231Z,27.13
2022-10-03T10:58:25.227Z,27.13
2022-10-03T10:59:25.224Z,27.17
2022-10-03T11:00:25.331Z,27.18
2022-10-03T11:01:25.227Z,27.19
2022-10-03T11:02:25.250Z,27.19
2022-10-03T11:03:25.225Z,27.21
2022-10-03T11:04:25.259Z,27.22
2022-10-03T11:05:25.225Z,27.27
2022-10-03T11:06:25.225Z,27.21
2022-10-03T11:07:25.226Z,27.31
2022-10-03T11:08:25.226Z,27.21
2022-10-03T11:09:25.229Z,27.31
2022-10-03T11:10:25.225Z,27.21
2022-10-03T11:11:25.229Z,27.25
2022-10-03T11:12:25.227Z,27.25
2022-10-03T11:13:25.228Z,27.22
2022-10-03T11:14:25.226Z,27.21
2022-10-03T11:15:25.228Z,27.27
2022-10-03T11:16:25.370Z,27.25
2022-10-03T11:17:25.229Z,27.29
2022-10-03T11:18:25.253Z,27.29
2022-10-03T11:19:25.228Z,27.25
2022-10-03T11:20:25.232Z,27.22
2022-10-03T11:21:25.230Z,27.29
2022-10-03T11:22:25.229Z,27.25
2022-10-03T11:23:25.231Z,27.32
2022-10-03T11:24:25.231Z,27.36
2022-10-03T11:25:25.233Z,27.39
2022-10-03T11:26:25.230Z,27.34
2022-10-03T11:27:25.233Z,27.43
2022-10-03T11:28:27.197Z,27.40
2022-10-03T11:29:25.237Z,27.37
2022-10-03T11:30:25.231Z,27.40
2022-10-03T11:31:25.261Z,27.41
2022-10-03T11:32:25.235Z,27.37
2022-10-03T11:33:25.234Z,27.41
2022-10-03T11:34:25.257Z,27.46
2022-10-03T11:35:25.233Z,27.44
2022-10-03T11:36:25.234Z,27.47
2022-10-03T11:37:25.234Z,27.41
2022-10-03T11:38:25.236Z,27.46
2022-10-03T11:39:25.236Z,27.50
2022-10-03T11:40:25.235Z,27.44
2022-10-03T11:41:25.236Z,27.41
2022-10-03T11:42:25.235Z,27.41
2022-10-03T11:43:25.238Z,27.39
2022-10-03T11:44:25.238Z,27.41
2022-10-03T11:45:25.255Z,27.37
2022-10-03T11:46:25.237Z,27.51
2022-10-03T11:47:25.238Z,27.43
2022-10-03T11:48:25.239Z,27.49
2022-10-03T11:49:25.239Z,27.41
2022-10-03T11:50:25.264Z,27.40
2022-10-03T11:51:25.240Z,27.39
2022-10-03T11:52:25.239Z,27.40
2022-10-03T11:53:25.241Z,27.43
2022-10-03T11:54:32.749Z,27.40
2022-10-03T11:55:25.241Z,27.32
2022-10-03T11:56:25.240Z,27.43
2022-10-03T11:57:25.243Z,27.32
2022-10-03T11:58:25.241Z,27.36
2022-10-03T11:59:26.964Z,27.31
2022-10-03T12:00:25.244Z,27.29
2022-10-03T12:01:25.245Z,27.50
2022-10-03T12:02:25.374Z,27.34
2022-10-03T12:03:25.306Z,27.41
2022-10-03T12:04:25.244Z,27.41
2022-10-03T12:05:25.247Z,27.40
2022-10-03T12:06:25.266Z,27.36
2022-10-03T12:07:25.247Z,27.37
2022-10-03T12:08:25.245Z,27.32
2022-10-03T12:09:25.246Z,27.39
2022-10-03T12:10:25.247Z,27.39
2022-10-03T12:11:25.247Z,27.32
2022-10-03T12:12:25.246Z,27.36
2022-10-03T12:13:25.247Z,27.41
2022-10-03T12:14:25.247Z,27.36
2022-10-03T12:15:25.248Z,27.37
2022-10-03T12:16:25.314Z,27.34
2022-10-03T12:17:25.248Z,27.40
2022-10-03T12:18:25.247Z,27.28
2022-10-03T12:19:25.249Z,27.34
2022-10-03T12:20:25.250Z,27.32
2022-10-03T12:21:25.250Z,27.34
2022-10-03T12:22:25.270Z,27.29
2022-10-03T12:23:25.251Z,27.31
2022-10-03T12:24:25.249Z,27.34
2022-10-03T12:25:25.251Z,27.34
2022-10-03T12:26:25.251Z,27.32
2022-10-03T12:27:25.253Z,27.40
2022-10-03T12:28:25.342Z,27.36
2022-10-03T12:29:25.252Z,27.34
2022-10-03T12:30:25.252Z,27.31
2022-10-03T12:31:25.281Z,27.28
2022-10-03T12:32:25.254Z,27.29
2022-10-03T12:33:25.255Z,27.34
2022-10-03T12:34:25.252Z,27.37
2022-10-03T12:35:25.253Z,27.28
2022-10-03T12:36:25.255Z,27.31
2022-10-03T12:37:25.256Z,27.32
2022-10-03T12:38:25.277Z,27.34
2022-10-03T12:39:25.254Z,27.31
2022-10-03T12:40:25.256Z,27.34
2022-10-03T12:41:25.255Z,27.36
2022-10-03T12:42:25.265Z,27.41
2022-10-03T12:43:25.257Z,27.31
2022-10-03T12:44:25.257Z,27.39
2022-10-03T12:45:25.256Z,27.36
2022-10-03T12:46:25.325Z,27.43
2022-10-03T12:47:43.831Z,27.37
2022-10-03T12:48:25.259Z,27.32
2022-10-03T12:49:25.258Z,27.34
2022-10-03T12:50:25.259Z,27.36
2022-10-03T12:51:25.259Z,27.32
2022-10-03T12:52:25.260Z,27.39